Time;durP1;ratioP1;P1;durP2;ratioP2;P2;SDS_P1;SDS_P2;PMS_P1;PMS_P2;Temp;Humidity;BMP_temperature;BMP_pressure;BME280_temperature;BME280_humidity;BME280_pressure;Samples;Min_cycle;Max_cycle;Signal;HPM_P1;HPM_P2
2022/06/23 00:01:55;;;;;;;3.47;1.60;;;18.70;88.50;;;;;;5005851;28;20022;-59
2022/06/23 00:04:25;;;;;;;5.43;1.95;;;18.70;88.70;;;;;;4982181;28;20033;-60
2022/06/23 00:07:03;;;;;;;4.05;1.83;;;18.60;88.60;;;;;;5003165;28;20151;-57
2022/06/23 00:09:45;;;;;;;4.65;1.63;;;18.60;88.80;;;;;;4985347;28;20050;-56
2022/06/23 00:12:24;;;;;;;2.60;1.40;;;18.60;89.40;;;;;;5009568;28;20029;-58
2022/06/23 00:15:13;;;;;;;7.00;2.05;;;18.70;89.30;;;;;;5002020;28;20028;-57
2022/06/23 00:17:44;;;;;;;2.38;1.52;;;18.70;89.60;;;;;;4996885;28;20040;-55
2022/06/23 00:20:20;;;;;;;8.82;1.80;;;18.60;90.00;;;;;;5010255;28;20033;-60
2022/06/23 00:22:51;;;;;;;7.88;1.58;;;18.60;90.00;;;;;;5008895;28;20033;-60
2022/06/23 00:25:31;;;;;;;3.17;1.95;;;18.60;90.00;;;;;;5003389;28;20042;-54
2022/06/23 00:27:58;;;;;;;5.60;1.83;;;18.60;90.00;;;;;;5004724;28;20106;-60
2022/06/23 00:30:39;;;;;;;1.75;1.42;;;18.50;90.00;;;;;;5001583;28;20018;-59
2022/06/23 00:33:06;;;;;;;6.47;1.85;;;18.50;90.70;;;;;;4998873;28;20369;-59
2022/06/23 00:35:32;;;;;;;3.28;1.60;;;18.40;91.70;;;;;;5003560;28;20526;-59
2022/06/23 00:37:58;;;;;;;2.22;1.50;;;18.20;91.80;;;;;;5005993;28;20034;-58
2022/06/23 00:40:24;;;;;;;4.28;1.60;;;18.20;91.30;;;;;;5000314;28;20034;-58
2022/06/23 00:42:57;;;;;;;3.83;1.55;;;18.20;91.20;;;;;;5001053;28;20044;-60
2022/06/23 00:45:30;;;;;;;6.97;2.03;;;18.30;91.10;;;;;;5006874;28;20068;-58
2022/06/23 00:48:23;;;;;;;3.67;1.60;;;18.40;90.60;;;;;;4997868;28;20328;-60
2022/06/23 00:51:14;;;;;;;4.90;1.65;;;18.40;90.50;;;;;;4998189;28;20120;-60
2022/06/23 00:53:47;;;;;;;3.38;1.45;;;18.50;90.40;;;;;;4995763;28;20527;-59
2022/06/23 00:56:32;;;;;;;6.40;1.98;;;18.50;90.70;;;;;;4997074;28;20030;-57
2022/06/23 00:59:04;;;;;;;3.60;1.80;;;18.40;91.10;;;;;;5000638;28;20033;-58
2022/06/23 01:01:35;;;;;;;3.13;1.60;;;18.30;91.80;;;;;;5005645;28;20040;-58
2022/06/23 01:04:05;;;;;;;2.28;1.50;;;18.20;91.10;;;;;;5005417;28;20506;-59
2022/06/23 01:06:44;;;;;;;3.13;1.77;;;18.20;90.70;;;;;;5003997;28;20026;-59
2022/06/23 01:09:26;;;;;;;3.15;1.60;;;18.30;90.30;;;;;;4980055;28;20448;-58
2022/06/23 01:11:58;;;;;;;3.35;1.90;;;18.40;90.00;;;;;;5006669;28;20110;-57
2022/06/23 01:14:27;;;;;;;6.78;1.80;;;18.40;89.00;;;;;;5000546;28;20033;-59
2022/06/23 01:17:01;;;;;;;2.88;1.65;;;18.50;89.00;;;;;;5002609;28;20033;-58
2022/06/23 01:20:19;;;;;;;8.90;1.55;;;18.60;88.50;;;;;;4998526;28;20188;-58
2022/06/23 01:22:51;;;;;;;5.72;1.95;;;18.50;89.90;;;;;;4963981;28;20056;-58
2022/06/23 01:25:17;;;;;;;6.72;1.67;;;18.50;88.90;;;;;;4999776;28;20403;-49
2022/06/23 01:27:53;;;;;;;4.45;1.90;;;18.50;88.90;;;;;;5000933;28;20036;-57
2022/06/23 01:30:21;;;;;;;3.08;1.38;;;18.60;88.80;;;;;;5013127;28;20483;-57
2022/06/23 01:33:10;;;;;;;3.50;1.75;;;18.60;88.60;;;;;;5006644;28;20116;-58
2022/06/23 01:35:54;;;;;;;4.43;1.80;;;18.70;88.50;;;;;;5010825;28;20138;-56
2022/06/23 01:38:24;;;;;;;3.47;1.33;;;18.70;88.30;;;;;;5008657;28;20045;-59
2022/06/23 01:41:06;;;;;;;3.85;1.42;;;18.70;87.90;;;;;;5010705;28;20088;-58
2022/06/23 01:43:43;;;;;;;2.65;1.20;;;18.70;87.50;;;;;;4998629;28;20050;-59
2022/06/23 01:46:21;;;;;;;6.45;1.80;;;18.70;87.20;;;;;;5006122;28;20026;-57
2022/06/23 01:48:56;;;;;;;3.10;1.20;;;18.70;87.10;;;;;;5008084;28;20125;-58
2022/06/23 01:51:53;;;;;;;3.88;1.40;;;18.70;86.80;;;;;;5007553;28;20034;-59
2022/06/23 01:54:24;;;;;;;4.00;1.88;;;18.70;86.80;;;;;;5001958;28;20060;-57
2022/06/23 01:57:08;;;;;;;5.70;1.52;;;18.70;86.80;;;;;;5003826;28;20026;-52
2022/06/23 01:59:45;;;;;;;4.10;2.00;;;18.70;86.80;;;;;;5005342;28;20030;-58
2022/06/23 02:02:11;;;;;;;4.90;1.42;;;18.70;86.90;;;;;;5005056;28;20030;-56
2022/06/23 02:04:55;;;;;;;4.53;1.40;;;18.60;87.60;;;;;;5004796;28;20036;-57
2022/06/23 02:07:29;;;;;;;3.88;1.50;;;18.60;87.70;;;;;;5009228;28;20038;-58
2022/06/23 02:10:09;;;;;;;3.88;1.35;;;18.60;87.70;;;;;;4989323;28;20034;-56
2022/06/23 02:12:41;;;;;;;2.63;1.42;;;18.60;88.10;;;;;;5002165;28;20072;-58
2022/06/23 02:15:15;;;;;;;5.97;1.65;;;18.50;88.30;;;;;;5007508;28;20411;-57
2022/06/23 02:17:58;;;;;;;3.47;1.73;;;18.40;88.70;;;;;;5002444;28;20034;-57
2022/06/23 02:20:33;;;;;;;3.75;1.50;;;18.40;89.10;;;;;;5006891;28;20022;-56
2022/06/23 02:23:32;;;;;;;6.82;1.80;;;18.30;90.00;;;;;;5009000;28;20468;-57
2022/06/23 02:26:15;;;;;;;2.92;1.48;;;18.20;90.30;;;;;;5010750;28;20064;-58
2022/06/23 02:29:00;;;;;;;3.00;1.60;;;18.00;91.20;;;;;;4999068;28;20030;-60
2022/06/23 02:32:02;;;;;;;4.18;2.00;;;17.90;91.60;;;;;;5006998;28;20419;-50
2022/06/23 02:34:36;;;;;;;2.65;1.70;;;17.90;91.50;;;;;;5010773;28;20038;-58
2022/06/23 02:37:39;;;;;;;4.00;1.65;;;18.00;91.30;;;;;;5010867;28;20196;-58
2022/06/23 02:40:14;;;;;;;5.10;1.80;;;18.00;91.40;;;;;;5008246;28;20505;-58
2022/06/23 02:42:40;;;;;;;3.70;1.73;;;18.10;91.40;;;;;;5005032;28;20532;-58
2022/06/23 02:45:12;;;;;;;2.72;1.88;;;18.00;91.60;;;;;;5006458;28;20071;-59
2022/06/23 02:47:49;;;;;;;4.18;1.90;;;17.90;91.70;;;;;;5004757;28;20034;-57
2022/06/23 02:50:33;;;;;;;3.17;1.52;;;17.80;92.00;;;;;;5002696;28;20029;-57
2022/06/23 02:53:04;;;;;;;9.48;2.20;;;17.80;91.90;;;;;;4999565;28;20030;-59
2022/06/23 02:56:03;;;;;;;5.50;2.10;;;17.80;92.10;;;;;;4994710;28;20058;-56
2022/06/23 02:58:37;;;;;;;4.68;1.83;;;17.80;92.20;;;;;;5007945;28;20507;-57
2022/06/23 03:01:08;;;;;;;3.88;1.40;;;17.70;92.80;;;;;;5005345;28;20033;-58
2022/06/23 03:03:51;;;;;;;3.15;1.83;;;17.70;92.90;;;;;;5001201;28;20030;-59
2022/06/23 03:06:27;;;;;;;5.70;2.27;;;17.60;93.00;;;;;;5007506;28;20041;-59
2022/06/23 03:09:19;;;;;;;3.22;1.80;;;17.60;93.10;;;;;;4982037;28;20065;-55
2022/06/23 03:12:09;;;;;;;2.75;1.70;;;17.50;94.20;;;;;;4996235;28;20041;-58
2022/06/23 03:14:47;;;;;;;4.97;1.70;;;17.40;94.50;;;;;;5010019;28;20057;-59
2022/06/23 03:17:26;;;;;;;3.20;1.73;;;17.40;93.80;;;;;;5009137;28;20475;-58
2022/06/23 03:20:20;;;;;;;5.43;1.67;;;17.40;93.70;;;;;;5004982;28;20589;-56
2022/06/23 03:22:51;;;;;;;5.55;1.85;;;17.50;93.60;;;;;;5004235;28;20061;-60
2022/06/23 03:25:38;;;;;;;6.90;2.00;;;17.50;93.50;;;;;;5005379;28;20030;-54
2022/06/23 03:28:13;;;;;;;1.90;1.38;;;17.60;93.40;;;;;;5003783;28;20023;-61
2022/06/23 03:30:45;;;;;;;5.65;1.80;;;17.60;93.80;;;;;;5006945;28;20126;-57
2022/06/23 03:33:20;;;;;;;2.78;1.42;;;17.50;94.60;;;;;;5005837;28;20534;-60
2022/06/23 03:36:01;;;;;;;5.18;1.80;;;17.40;95.00;;;;;;5001494;28;20446;-60
2022/06/23 03:41:37;;;;;;;6.57;1.77;;;17.40;94.40;;;;;;4998911;28;20102;-54
2022/06/23 03:44:43;;;;;;;2.38;1.60;;;17.40;94.20;;;;;;5005481;28;20107;-57
2022/06/23 03:47:40;;;;;;;3.75;1.55;;;17.50;93.90;;;;;;5010152;28;20501;-59
2022/06/23 03:50:48;;;;;;;6.45;1.83;;;17.70;93.30;;;;;;5010312;28;20072;-60
2022/06/23 03:53:30;;;;;;;4.57;1.80;;;17.70;93.50;;;;;;4996385;28;20034;-58
2022/06/23 03:56:05;;;;;;;4.38;1.98;;;17.80;93.00;;;;;;4996304;28;20029;-59
2022/06/23 03:58:41;;;;;;;4.15;1.40;;;17.90;93.20;;;;;;5005127;28;20042;-59
2022/06/23 04:01:19;;;;;;;4.97;1.35;;;18.00;92.40;;;;;;5017694;28;20651;-58
2022/06/23 04:04:03;;;;;;;7.60;1.92;;;18.10;92.10;;;;;;5004725;28;20033;-60
2022/06/23 04:06:43;;;;;;;6.80;1.50;;;18.20;92.30;;;;;;5004105;28;20025;-58
2022/06/23 04:09:36;;;;;;;5.63;2.63;;;18.30;92.40;;;;;;4981790;28;20046;-58
2022/06/23 04:12:08;;;;;;;2.35;1.40;;;18.30;92.80;;;;;;4996527;28;20030;-60
2022/06/23 04:14:39;;;;;;;3.95;1.50;;;18.30;92.90;;;;;;5001506;28;20038;-59
2022/06/23 04:17:26;;;;;;;3.88;1.92;;;18.40;93.00;;;;;;5006891;28;20442;-57
2022/06/23 04:20:20;;;;;;;8.98;1.98;;;18.40;93.40;;;;;;5001312;28;20045;-60
2022/06/23 04:22:53;;;;;;;4.82;2.22;;;18.40;93.90;;;;;;4992283;28;20042;-54
2022/06/23 04:25:22;;;;;;;3.33;1.70;;;18.50;93.70;;;;;;5007542;28;20479;-54
2022/06/23 04:27:54;;;;;;;2.95;1.70;;;18.60;93.10;;;;;;4999753;28;20393;-57
2022/06/23 04:30:34;;;;;;;4.50;2.00;;;18.60;92.30;;;;;;5000047;28;20516;-59
2022/06/23 04:33:05;;;;;;;3.97;1.55;;;18.70;92.60;;;;;;5005752;28;20029;-59
2022/06/23 04:35:39;;;;;;;4.45;1.75;;;18.90;92.10;;;;;;4996848;28;20034;-57
2022/06/23 04:38:10;;;;;;;4.32;1.80;;;19.70;91.30;;;;;;5000813;28;20030;-59
2022/06/23 04:40:48;;;;;;;2.25;1.60;;;20.90;88.10;;;;;;5007324;28;20495;-58
2022/06/23 04:43:35;;;;;;;4.75;1.90;;;22.50;82.90;;;;;;5005612;28;20034;-59
2022/06/23 04:46:04;;;;;;;9.02;1.95;;;24.00;77.40;;;;;;5000473;28;20042;-58
2022/06/23 04:48:38;;;;;;;4.38;1.63;;;24.60;73.70;;;;;;5006741;28;20033;-60
2022/06/23 04:51:13;;;;;;;3.97;1.40;;;25.10;72.70;;;;;;5008614;28;20407;-59
2022/06/23 04:54:06;;;;;;;2.08;1.48;;;25.80;69.20;;;;;;4993153;28;20129;-59
2022/06/23 04:56:34;;;;;;;3.90;1.50;;;26.30;67.50;;;;;;4991941;28;20050;-60
2022/06/23 04:59:23;;;;;;;5.45;1.65;;;26.80;67.20;;;;;;5002010;28;20037;-61
2022/06/23 05:01:52;;;;;;;3.10;1.55;;;27.20;68.40;;;;;;5003733;28;20416;-54
2022/06/23 05:04:25;;;;;;;4.60;1.58;;;27.50;66.30;;;;;;5006723;28;20062;-59
2022/06/23 05:06:54;;;;;;;11.38;1.83;;;28.80;65.80;;;;;;4999001;28;20052;-58
2022/06/23 05:09:22;;;;;;;6.63;1.77;;;28.90;61.60;;;;;;4990248;28;20077;-50
2022/06/23 05:11:55;;;;;;;3.05;1.60;;;29.00;62.70;;;;;;5005885;28;20033;-60
2022/06/23 05:14:46;;;;;;;6.30;1.23;;;29.20;63.20;;;;;;5006942;28;20101;-61
2022/06/23 05:17:20;;;;;;;2.97;1.40;;;29.50;60.20;;;;;;5001381;28;20030;-62
2022/06/23 05:19:47;;;;;;;2.80;1.40;;;30.40;57.90;;;;;;4999885;28;20034;-59
2022/06/23 05:22:12;;;;;;;3.35;1.25;;;31.30;56.60;;;;;;4998356;28;20546;-60
2022/06/23 05:24:41;;;;;;;5.13;1.17;;;30.90;56.60;;;;;;5003818;28;20034;-61
2022/06/23 05:27:19;;;;;;;4.15;1.50;;;31.10;56.00;;;;;;4999159;28;20034;-61
2022/06/23 05:29:52;;;;;;;5.78;1.50;;;31.60;56.40;;;;;;5004341;28;20026;-61
2022/06/23 05:32:23;;;;;;;4.88;1.83;;;32.20;54.90;;;;;;5001021;28;20031;-60
2022/06/23 05:35:03;;;;;;;2.80;1.50;;;31.90;54.60;;;;;;5005767;28;20523;-59
2022/06/23 05:37:50;;;;;;;8.85;1.60;;;32.30;54.50;;;;;;4994484;28;20204;-61
2022/06/23 05:40:26;;;;;;;3.13;1.67;;;31.90;54.60;;;;;;4998205;28;20392;-59
2022/06/23 05:42:55;;;;;;;3.70;1.30;;;31.50;56.10;;;;;;5004403;28;20030;-60
2022/06/23 05:45:27;;;;;;;3.40;1.67;;;32.10;54.70;;;;;;4998292;28;20106;-52
2022/06/23 05:47:54;;;;;;;1.88;1.20;;;31.90;54.80;;;;;;5002061;28;20040;-61
2022/06/23 05:50:26;;;;;;;6.88;1.75;;;32.40;54.20;;;;;;5006688;28;20479;-61
2022/06/23 05:52:58;;;;;;;4.03;1.40;;;32.20;54.20;;;;;;5003971;28;20049;-62
2022/06/23 05:55:29;;;;;;;8.32;2.03;;;32.60;54.40;;;;;;5005810;28;20037;-59
2022/06/23 05:58:41;;;;;;;5.28;2.10;;;33.00;55.50;;;;;;5003773;28;20038;-61
2022/06/23 06:01:35;;;;;;;2.65;1.38;;;33.10;54.10;;;;;;4991223;28;20030;-61
2022/06/23 06:04:24;;;;;;;3.95;1.80;;;32.70;53.00;;;;;;4998410;28;20022;-61
2022/06/23 06:06:49;;;;;;;2.22;1.10;;;32.70;53.90;;;;;;5005845;28;20022;-61
2022/06/23 06:09:37;;;;;;;4.28;1.63;;;32.70;55.50;;;;;;4990037;28;20045;-61
2022/06/23 06:12:11;;;;;;;5.20;2.00;;;33.60;55.20;;;;;;4996297;28;20034;-61
2022/06/23 06:14:44;;;;;;;2.35;1.40;;;34.50;52.50;;;;;;5008423;28;20018;-61
2022/06/23 06:17:25;;;;;;;4.40;1.50;;;34.80;52.50;;;;;;5005949;28;20504;-61
2022/06/23 06:19:54;;;;;;;3.13;1.40;;;35.10;52.30;;;;;;5004707;28;20026;-60
2022/06/23 06:22:44;;;;;;;5.88;1.98;;;34.90;53.30;;;;;;5008333;28;20030;-62
2022/06/23 06:25:34;;;;;;;5.60;2.22;;;35.10;51.60;;;;;;5005489;28;20029;-61
2022/06/23 06:28:16;;;;;;;5.13;1.83;;;35.00;51.50;;;;;;5006314;28;20084;-62
2022/06/23 06:31:00;;;;;;;6.13;1.63;;;35.70;51.80;;;;;;5003177;28;20097;-61
2022/06/23 06:33:50;;;;;;;5.55;2.30;;;35.20;51.20;;;;;;5008306;28;20034;-61
2022/06/23 06:36:36;;;;;;;3.65;1.52;;;34.40;51.60;;;;;;4999465;28;20034;-62
2022/06/23 06:39:26;;;;;;;11.05;2.50;;;35.40;51.90;;;;;;5010074;28;20042;-62
2022/06/23 06:42:08;;;;;;;5.93;1.90;;;35.30;50.80;;;;;;5010508;28;20022;-61
2022/06/23 06:44:39;;;;;;;3.10;1.88;;;34.80;51.80;;;;;;5007652;28;20077;-61
2022/06/23 06:47:05;;;;;;;4.85;2.10;;;35.10;51.80;;;;;;5010682;28;20025;-60
2022/06/23 06:49:32;;;;;;;3.70;2.08;;;35.20;51.70;;;;;;4998676;28;20039;-62
2022/06/23 06:51:58;;;;;;;3.75;2.05;;;35.50;52.10;;;;;;5002536;28;20496;-60
2022/06/23 06:54:34;;;;;;;8.20;2.03;;;36.40;51.20;;;;;;5007717;28;20038;-60
2022/06/23 06:57:05;;;;;;;3.55;2.33;;;35.90;51.30;;;;;;5007580;28;20033;-61
2022/06/23 06:59:45;;;;;;;3.85;1.83;;;36.20;52.30;;;;;;5002097;28;20480;-59
2022/06/23 07:02:14;;;;;;;5.93;2.08;;;36.40;51.50;;;;;;5010918;28;20040;-59
2022/06/23 07:04:54;;;;;;;6.18;2.40;;;36.90;49.90;;;;;;5003870;28;20412;-60
2022/06/23 07:07:28;;;;;;;6.82;2.15;;;37.10;49.90;;;;;;5004338;28;20049;-55
2022/06/23 07:09:54;;;;;;;4.75;2.03;;;37.00;49.90;;;;;;4988862;28;20052;-59
2022/06/23 07:12:25;;;;;;;5.13;2.00;;;35.80;50.30;;;;;;5000390;28;20403;-59
2022/06/23 07:15:11;;;;;;;3.17;1.67;;;35.60;51.60;;;;;;5009731;28;20022;-57
2022/06/23 07:17:51;;;;;;;10.52;2.72;;;36.10;50.60;;;;;;5004139;28;20507;-57
2022/06/23 07:20:26;;;;;;;4.60;1.73;;;36.60;51.80;;;;;;4988016;28;20018;-59
2022/06/23 07:23:02;;;;;;;6.75;2.00;;;37.00;50.50;;;;;;4997600;28;20479;-60
2022/06/23 07:25:41;;;;;;;4.07;2.00;;;36.20;51.30;;;;;;5000543;28;20439;-60
2022/06/23 07:28:18;;;;;;;3.70;2.00;;;36.90;52.10;;;;;;5002750;28;20026;-60
2022/06/23 07:30:49;;;;;;;4.88;2.42;;;37.20;51.30;;;;;;4984847;28;20499;-60
2022/06/23 07:33:24;;;;;;;6.03;2.30;;;38.20;50.90;;;;;;5006904;28;20368;-59
2022/06/23 07:35:58;;;;;;;4.72;2.28;;;38.30;51.20;;;;;;5005792;28;20037;-60
2022/06/23 07:38:30;;;;;;;4.88;2.28;;;37.40;50.60;;;;;;5007734;28;20048;-58
2022/06/23 07:41:02;;;;;;;;;;;37.50;50.70;;;;;;5010097;28;20076;-60
2022/06/23 07:43:42;;;;;;;5.80;2.25;;;38.30;50.40;;;;;;5001615;28;19960;-60
2022/06/23 07:46:08;;;;;;;4.43;1.90;;;38.40;50.10;;;;;;5007599;28;20105;-59
2022/06/23 07:48:36;;;;;;;6.43;2.28;;;38.40;50.10;;;;;;5005910;28;20117;-60
2022/06/23 07:51:08;;;;;;;5.50;2.63;;;37.90;51.40;;;;;;5007353;28;20101;-60
2022/06/23 07:53:46;;;;;;;7.22;2.90;;;37.90;51.70;;;;;;5008212;28;20030;-60
2022/06/23 07:56:16;;;;;;;3.70;2.25;;;38.10;50.10;;;;;;5002420;28;20029;-58
2022/06/23 07:58:42;;;;;;;4.78;2.30;;;38.10;52.70;;;;;;5004204;28;20550;-60
2022/06/23 08:01:17;;;;;;;6.05;2.45;;;37.50;52.40;;;;;;5006877;28;20395;-60
2022/06/23 08:04:15;;;;;;;8.07;2.70;;;38.00;53.00;;;;;;5008335;28;20026;-59
2022/06/23 08:06:41;;;;;;;6.70;2.50;;;38.10;51.80;;;;;;5004672;28;20030;-60
2022/06/23 08:09:29;;;;;;;6.35;2.40;;;38.10;50.70;;;;;;4986476;28;20029;-59
2022/06/23 08:17:48;;;;;;;7.70;2.28;;;37.80;53.40;;;;;;5005364;28;20403;-60
2022/06/23 08:20:17;;;;;;;5.55;2.40;;;37.80;51.80;;;;;;5001687;28;20037;-60
2022/06/23 08:22:43;;;;;;;6.80;2.63;;;37.60;52.50;;;;;;4994426;28;20080;-60
2022/06/23 08:25:10;;;;;;;5.10;2.47;;;37.40;51.30;;;;;;5006233;28;20152;-61
2022/06/23 08:27:40;;;;;;;9.02;2.80;;;37.30;52.60;;;;;;5004966;28;20484;-58
2022/06/23 08:30:09;;;;;;;7.63;2.50;;;37.70;53.90;;;;;;4998714;28;20045;-59
2022/06/23 08:32:37;;;;;;;7.47;2.80;;;37.70;52.70;;;;;;5002572;28;20109;-60
2022/06/23 08:35:32;;;;;;;8.43;2.72;;;37.60;53.20;;;;;;5006546;28;20029;-60
2022/06/23 08:38:29;;;;;;;4.72;2.35;;;38.00;53.60;;;;;;4997086;28;20054;-60
2022/06/23 08:41:13;;;;;;;8.93;2.53;;;38.70;50.40;;;;;;5003624;28;20120;-60
2022/06/23 08:43:58;;;;;;;6.72;2.97;;;38.00;50.80;;;;;;5002495;28;20030;-59
2022/06/23 08:46:35;;;;;;;6.55;3.25;;;37.90;51.50;;;;;;5003265;28;20040;-60
2022/06/23 08:49:32;;;;;;;7.22;2.60;;;38.00;52.20;;;;;;5004389;28;20081;-60
2022/06/23 08:52:00;;;;;;;7.57;2.50;;;38.30;51.40;;;;;;4997227;28;20484;-59
2022/06/23 08:54:45;;;;;;;5.53;3.10;;;38.50;51.60;;;;;;4999549;28;20026;-59
2022/06/23 08:57:19;;;;;;;6.60;2.97;;;39.10;51.20;;;;;;5005355;28;20038;-60
2022/06/23 09:00:20;;;;;;;4.10;2.47;;;39.20;49.00;;;;;;5000889;28;20022;-60
2022/06/23 09:03:07;;;;;;;6.50;2.20;;;39.10;51.40;;;;;;5001801;28;20026;-60
2022/06/23 09:05:55;;;;;;;5.18;2.30;;;39.20;49.60;;;;;;4993731;28;20097;-60
2022/06/23 09:08:42;;;;;;;3.90;2.10;;;38.80;49.70;;;;;;5004983;28;20034;-60
2022/06/23 09:11:30;;;;;;;5.30;2.53;;;37.60;50.90;;;;;;4984108;28;20042;-60
2022/06/23 09:14:04;;;;;;;5.63;2.78;;;37.80;50.70;;;;;;5000038;28;20043;-59
2022/06/23 09:16:51;;;;;;;5.00;2.70;;;38.00;51.00;;;;;;5000578;28;20037;-59
2022/06/23 09:19:34;;;;;;;6.53;2.53;;;37.80;51.50;;;;;;4997127;28;20026;-60
2022/06/23 09:22:21;;;;;;;4.53;2.50;;;37.70;51.00;;;;;;4993348;28;20031;-60
2022/06/23 09:24:57;;;;;;;6.57;2.92;;;38.10;51.00;;;;;;4999775;28;20033;-53
2022/06/23 09:27:41;;;;;;;10.98;2.78;;;38.10;50.70;;;;;;5000456;28;20399;-55
2022/06/23 09:30:11;;;;;;;3.35;2.63;;;38.40;51.10;;;;;;5008345;28;20100;-61
2022/06/23 09:32:57;;;;;;;5.15;2.13;;;39.00;50.10;;;;;;5000932;28;20048;-61
2022/06/23 09:35:40;;;;;;;6.07;2.60;;;38.90;50.50;;;;;;5002773;28;20064;-53
2022/06/23 09:38:14;;;;;;;7.47;2.58;;;38.60;50.60;;;;;;4996082;28;20120;-61
2022/06/23 09:41:14;;;;;;;7.78;2.63;;;38.70;51.10;;;;;;5001841;28;20029;-61
2022/06/23 09:44:15;;;;;;;4.40;3.20;;;39.10;50.30;;;;;;5002550;28;20042;-60
2022/06/23 09:46:59;;;;;;;6.07;2.88;;;38.30;50.30;;;;;;4987903;28;20042;-57
2022/06/23 09:49:51;;;;;;;9.55;2.75;;;37.70;51.00;;;;;;5008520;28;20686;-61
2022/06/23 09:52:44;;;;;;;4.95;2.30;;;38.00;50.80;;;;;;5001764;28;20026;-61
2022/06/23 09:55:31;;;;;;;7.75;2.42;;;38.30;50.90;;;;;;4995864;28;20124;-61
2022/06/23 09:58:18;;;;;;;6.53;2.42;;;38.50;50.10;;;;;;5011535;28;20026;-61
2022/06/23 10:01:02;;;;;;;4.35;2.47;;;37.60;51.00;;;;;;5009110;28;20041;-61
2022/06/23 10:03:45;;;;;;;9.43;3.30;;;38.30;51.70;;;;;;5005779;28;20118;-61
2022/06/23 10:07:05;;;;;;;7.93;2.47;;;38.00;49.40;;;;;;5007090;28;20022;-55
2022/06/23 10:09:49;;;;;;;4.50;2.17;;;37.40;50.00;;;;;;4966756;28;22091;-60
2022/06/23 10:12:48;;;;;;;5.63;2.20;;;37.00;50.80;;;;;;5004507;28;20452;-60
2022/06/23 10:15:17;;;;;;;8.98;2.78;;;36.80;51.50;;;;;;4999559;28;20141;-59
2022/06/23 10:18:12;;;;;;;6.18;2.20;;;36.00;52.00;;;;;;5003928;28;20052;-59
2022/06/23 10:20:58;;;;;;;10.35;3.10;;;36.10;53.10;;;;;;5006401;28;20042;-59
2022/06/23 10:23:45;;;;;;;6.10;2.55;;;35.30;52.50;;;;;;5002667;28;20065;-55
2022/06/23 10:26:38;;;;;;;5.75;2.35;;;35.40;54.40;;;;;;5007529;28;20022;-56
2022/06/23 10:29:22;;;;;;;5.18;2.40;;;35.10;54.10;;;;;;5002918;28;20036;-57
2022/06/23 10:32:15;;;;;;;7.55;2.90;;;35.00;54.20;;;;;;5009804;28;20400;-58
2022/06/23 10:34:59;;;;;;;;;;;34.50;52.90;;;;;;5005796;28;20673;-59
2022/06/23 10:37:37;;;;;;;6.30;2.95;;;34.00;53.40;;;;;;5004110;28;20001;-59
2022/06/23 10:40:25;;;;;;;9.30;3.28;;;33.60;56.30;;;;;;5004685;28;20033;-58
2022/06/23 10:43:11;;;;;;;8.07;3.10;;;33.20;55.50;;;;;;4993598;28;20033;-57
2022/06/23 10:45:56;;;;;;;7.28;3.20;;;33.30;57.20;;;;;;5002086;28;20022;-59
2022/06/23 10:48:42;;;;;;;7.82;2.67;;;33.10;55.90;;;;;;5003465;28;20045;-58
2022/06/23 10:51:10;;;;;;;4.95;2.60;;;32.80;55.50;;;;;;5010210;28;20029;-58
2022/06/23 10:54:05;;;;;;;9.15;3.05;;;32.50;56.00;;;;;;5001939;28;20164;-60
2022/06/23 10:56:52;;;;;;;12.40;3.55;;;32.40;57.80;;;;;;5007295;28;20065;-58
2022/06/23 10:59:27;;;;;;;8.75;2.70;;;32.50;56.80;;;;;;5010540;28;20034;-58
2022/06/23 11:02:13;;;;;;;6.93;2.78;;;32.60;57.80;;;;;;5001200;28;20033;-57
2022/06/23 11:04:58;;;;;;;14.88;2.72;;;32.60;56.40;;;;;;5004108;28;20121;-60
2022/06/23 11:07:36;;;;;;;5.82;3.00;;;32.80;57.00;;;;;;4999146;28;20034;-57
2022/06/23 11:10:07;;;;;;;7.53;2.70;;;32.80;56.60;;;;;;4987823;28;20556;-58
2022/06/23 11:12:33;;;;;;;6.60;2.60;;;32.70;56.70;;;;;;5010125;28;20038;-59
2022/06/23 11:15:26;;;;;;;5.93;3.17;;;32.80;58.10;;;;;;5009301;28;20149;-57
2022/06/23 11:18:26;;;;;;;5.32;2.53;;;32.40;57.70;;;;;;5006688;28;20033;-60
2022/06/23 11:21:30;;;;;;;4.25;2.72;;;32.60;57.70;;;;;;5008015;28;20053;-60
2022/06/23 11:24:22;;;;;;;7.53;3.58;;;32.60;58.30;;;;;;5003782;28;20038;-57
2022/06/23 11:26:57;;;;;;;9.23;4.28;;;32.50;57.70;;;;;;5000541;28;20034;-58
2022/06/23 11:29:39;;;;;;;12.07;3.38;;;32.40;57.80;;;;;;4996180;28;20035;-56
2022/06/23 11:32:31;;;;;;;5.32;2.97;;;32.30;57.50;;;;;;4997752;28;20030;-57
2022/06/23 11:35:22;;;;;;;7.80;3.00;;;31.90;58.10;;;;;;5000065;28;20023;-58
2022/06/23 11:38:11;;;;;;;7.75;3.30;;;31.70;58.70;;;;;;5007147;28;20567;-57
2022/06/23 11:41:41;;;;;;;3.88;2.95;;;31.70;59.50;;;;;;5010052;28;20034;-58
2022/06/23 11:44:34;;;;;;;4.65;2.60;;;31.70;60.80;;;;;;4923946;28;20066;-58
2022/06/23 11:47:17;;;;;;;10.45;2.65;;;31.90;59.50;;;;;;4966202;28;20050;-59
2022/06/23 11:50:01;;;;;;;8.23;3.90;;;32.10;59.00;;;;;;4997385;28;20041;-59
2022/06/23 11:52:45;;;;;;;12.88;3.28;;;31.90;58.50;;;;;;4995194;28;20030;-59
2022/06/23 11:55:17;;;;;;;11.32;3.17;;;31.80;59.30;;;;;;4997906;28;20027;-56
2022/06/23 11:57:51;;;;;;;10.07;3.30;;;31.80;59.50;;;;;;5005424;28;20030;-57
2022/06/23 12:00:24;;;;;;;7.85;2.88;;;31.90;60.40;;;;;;5007298;28;20036;-59
2022/06/23 12:03:08;;;;;;;8.15;2.30;;;31.90;60.20;;;;;;5005543;28;20029;-59
2022/06/23 12:05:49;;;;;;;8.07;3.25;;;31.90;59.90;;;;;;5005875;28;20849;-60
2022/06/23 12:08:24;;;;;;;5.70;2.80;;;31.90;59.20;;;;;;4997394;28;20412;-60
2022/06/23 12:10:50;;;;;;;5.97;3.00;;;31.90;60.50;;;;;;4995997;28;20108;-59
2022/06/23 12:13:16;;;;;;;6.63;3.20;;;31.90;60.20;;;;;;5006946;28;20496;-60
2022/06/23 12:15:45;;;;;;;7.40;3.30;;;31.80;60.00;;;;;;5009054;28;20026;-59
2022/06/23 12:18:17;;;;;;;8.82;3.35;;;31.70;60.10;;;;;;5003663;28;20022;-60
2022/06/23 12:21:01;;;;;;;8.50;3.58;;;31.60;60.50;;;;;;5004564;28;20545;-59
2022/06/23 12:23:38;;;;;;;7.90;2.90;;;31.40;60.60;;;;;;5006631;28;20042;-59
2022/06/23 12:26:22;;;;;;;11.57;3.33;;;31.20;60.70;;;;;;5007977;28;20034;-59
2022/06/23 12:28:53;;;;;;;9.38;3.60;;;31.20;60.80;;;;;;5003907;28;20033;-58
2022/06/23 12:31:40;;;;;;;6.55;3.35;;;31.10;61.60;;;;;;5005059;28;20034;-58
2022/06/23 12:34:26;;;;;;;9.85;3.58;;;31.30;63.00;;;;;;5005126;28;20021;-57
2022/06/23 12:36:54;;;;;;;13.10;3.10;;;31.30;61.80;;;;;;4997723;28;20014;-59
2022/06/23 12:39:51;;;;;;;7.88;3.40;;;31.40;63.60;;;;;;5006474;28;20042;-55
2022/06/23 12:42:49;;;;;;;8.90;3.83;;;31.50;62.70;;;;;;5003506;28;20609;-58
2022/06/23 12:45:30;;;;;;;6.97;2.95;;;31.70;63.40;;;;;;4997273;28;20109;-60
2022/06/23 12:48:10;;;;;;;6.05;3.00;;;31.40;61.80;;;;;;5002678;28;20152;-60
2022/06/23 12:51:04;;;;;;;13.45;3.55;;;31.30;62.90;;;;;;5007545;28;20041;-58
2022/06/23 12:53:35;;;;;;;7.18;3.85;;;31.30;63.30;;;;;;5000709;28;20053;-56
2022/06/23 12:56:18;;;;;;;8.27;3.40;;;31.40;62.80;;;;;;5003102;28;20121;-58
2022/06/23 12:58:51;;;;;;;;;;;31.40;62.30;;;;;;4996803;28;20041;-58
2022/06/23 13:01:47;;;;;;;9.48;3.00;;;31.40;63.30;;;;;;5000775;28;20000;-59
2022/06/23 13:04:41;;;;;;;10.15;3.17;;;31.50;63.80;;;;;;4996408;28;20045;-59
2022/06/23 13:07:23;;;;;;;7.95;3.50;;;31.50;61.40;;;;;;4992376;28;20515;-58
2022/06/23 13:10:07;;;;;;;6.40;3.33;;;31.60;62.30;;;;;;5001001;28;20029;-59
2022/06/23 13:12:45;;;;;;;5.97;3.35;;;31.70;62.90;;;;;;4998896;28;20555;-60
2022/06/23 13:15:21;;;;;;;6.45;3.20;;;31.70;61.40;;;;;;5005016;28;20033;-58
2022/06/23 13:18:01;;;;;;;6.07;3.15;;;31.70;62.80;;;;;;5003968;28;20026;-58
2022/06/23 13:20:42;;;;;;;6.57;3.15;;;31.90;61.60;;;;;;5017155;28;20034;-59
2022/06/23 13:23:31;;;;;;;14.88;4.32;;;31.70;62.60;;;;;;5005986;28;20040;-59
2022/06/23 13:26:02;;;;;;;12.10;3.45;;;31.30;62.00;;;;;;5007394;28;20073;-58
2022/06/23 13:28:34;;;;;;;8.10;3.03;;;31.20;62.80;;;;;;5007896;28;20033;-59
2022/06/23 13:31:12;;;;;;;6.15;3.45;;;31.20;64.10;;;;;;5003935;28;20018;-58
2022/06/23 13:33:57;;;;;;;8.75;3.72;;;31.20;64.30;;;;;;5007132;28;20084;-59
2022/06/23 13:36:28;;;;;;;6.90;3.38;;;31.30;65.00;;;;;;5007841;28;20520;-61
2022/06/23 13:39:03;;;;;;;6.80;3.88;;;31.50;63.30;;;;;;5009585;28;20686;-59
2022/06/23 13:41:46;;;;;;;10.77;3.60;;;31.60;62.50;;;;;;5008393;28;20034;-59
2022/06/23 13:44:19;;;;;;;11.57;4.10;;;31.80;63.80;;;;;;5005842;28;20018;-58
2022/06/23 13:46:54;;;;;;;10.82;3.88;;;31.80;62.80;;;;;;5009974;28;20044;-60
2022/06/23 13:49:59;;;;;;;10.95;3.58;;;31.90;63.90;;;;;;5007513;28;20560;-59
2022/06/23 13:52:42;;;;;;;9.98;3.90;;;31.80;64.60;;;;;;4992856;28;20046;-59
2022/06/23 13:55:21;;;;;;;8.57;4.95;;;31.60;63.60;;;;;;5011311;28;20048;-57
2022/06/23 13:58:03;;;;;;;12.75;3.90;;;31.50;63.40;;;;;;5005606;28;20117;-57
2022/06/23 14:00:39;;;;;;;8.48;4.13;;;31.50;63.60;;;;;;5006055;28;20033;-60
2022/06/23 14:03:13;;;;;;;9.85;3.28;;;31.50;64.30;;;;;;5007717;28;20510;-60